Time;durP1;ratioP1;P1;durP2;ratioP2;P2;SDS_P1;SDS_P2;PMS_P1;PMS_P2;Temp;Humidity;BMP_temperature;BMP_pressure;BME280_temperature;BME280_humidity;BME280_pressure;Samples;Min_cycle;Max_cycle;Signal;HPM_P1;HPM_P2
2023/10/25 00:01:41;;;;;;;7.47;3.45;;;11.50;99.90;;;11.82;75.97;99240.81;5077055;28;20045;-80
2023/10/25 00:04:09;;;;;;;8.73;3.40;;;11.50;99.90;;;11.82;75.83;99240.81;5044209;28;20049;-80
2023/10/25 00:06:36;;;;;;;9.75;3.13;;;11.50;99.90;;;11.79;75.97;99235.94;5043030;28;20141;-80
2023/10/25 00:09:04;;;;;;;13.75;3.20;;;11.40;99.90;;;11.80;75.80;99236.75;5044800;28;20049;-80
2023/10/25 00:11:32;;;;;;;6.20;2.60;;;11.50;99.90;;;11.80;75.63;99236.75;5044993;28;20064;-80
2023/10/25 00:14:01;;;;;;;5.90;2.95;;;11.50;99.90;;;11.81;75.55;99236.53;5042411;28;20551;-80
2023/10/25 00:16:28;;;;;;;12.23;3.03;;;11.50;99.90;;;11.80;75.40;99234.06;5041796;28;20049;-80
2023/10/25 00:18:57;;;;;;;9.93;3.08;;;11.40;99.90;;;11.79;75.60;99233.28;5043903;28;20056;-80
2023/10/25 00:21:24;;;;;;;11.70;3.20;;;11.40;99.90;;;11.77;75.40;99239.94;5044736;28;20102;-80
2023/10/25 00:23:52;;;;;;;6.95;2.75;;;11.40;99.90;;;11.75;75.43;99231.34;5044775;28;20041;-80
2023/10/25 00:26:19;;;;;;;5.55;2.60;;;11.40;99.90;;;11.73;75.08;99238.81;5042457;28;20413;-80
2023/10/25 00:28:52;;;;;;;8.70;2.85;;;11.30;99.90;;;11.71;74.99;99236.41;5042992;28;20068;-80
2023/10/25 00:31:19;;;;;;;7.10;3.20;;;11.30;99.90;;;11.70;75.10;99237.44;5042322;28;20424;-80
2023/10/25 00:33:47;;;;;;;9.77;2.90;;;11.30;99.90;;;11.70;75.45;99236.63;5076063;28;20111;-80
2023/10/25 00:36:16;;;;;;;8.32;3.00;;;11.30;99.90;;;11.69;75.65;99238.50;5044347;28;20061;-80
2023/10/25 00:38:43;;;;;;;7.18;2.70;;;11.30;99.90;;;11.69;75.43;99235.03;5043883;28;20092;-80
2023/10/25 00:41:11;;;;;;;9.95;2.67;;;11.30;99.90;;;11.62;75.23;99237.88;5043284;28;20116;-80
2023/10/25 00:43:38;;;;;;;7.82;2.83;;;11.20;99.90;;;11.64;75.39;99243.78;5041875;28;20106;-80
2023/10/25 00:46:21;;;;;;;9.35;2.67;;;11.30;99.90;;;11.60;75.26;99238.13;5076071;28;20037;-80
2023/10/25 00:48:49;;;;;;;7.55;2.60;;;11.30;99.90;;;11.62;75.39;99235.22;5044468;28;20129;-80
2023/10/25 00:51:22;;;;;;;6.00;3.00;;;11.20;99.90;;;11.64;75.61;99238.44;5076008;28;20049;-80
2023/10/25 00:53:54;;;;;;;9.90;2.90;;;11.20;99.90;;;11.63;75.48;99234.16;5042573;28;20535;-80
2023/10/25 00:56:24;;;;;;;8.35;2.70;;;11.20;99.90;;;11.59;75.49;99227.69;5042406;28;20049;-80
2023/10/25 00:58:54;;;;;;;7.78;3.13;;;11.20;99.90;;;11.57;75.33;99235.97;5042486;28;20472;-80
2023/10/25 01:01:28;;;;;;;9.40;2.80;;;11.20;99.90;;;11.55;75.64;99232.72;5044180;28;20056;-80
2023/10/25 01:03:55;;;;;;;5.68;2.83;;;11.10;99.90;;;11.57;75.62;99232.47;5044269;28;20049;-80
2023/10/25 01:06:24;;;;;;;6.95;2.63;;;11.20;99.90;;;11.57;75.56;99227.94;5026618;28;20115;-80
2023/10/25 01:08:53;;;;;;;7.32;2.70;;;11.20;99.90;;;11.57;75.30;99232.47;5047166;28;20045;-80
2023/10/25 01:11:20;;;;;;;7.28;2.72;;;11.20;99.90;;;11.56;75.44;99226.31;5026547;28;20041;-80
2023/10/25 01:13:48;;;;;;;9.55;2.67;;;11.20;99.90;;;11.58;75.64;99231.41;5044209;28;20054;-80
2023/10/25 01:16:17;;;;;;;6.53;2.92;;;11.20;99.90;;;11.56;75.38;99234.31;5043609;28;20044;-80
2023/10/25 01:18:47;;;;;;;5.63;2.67;;;11.20;99.90;;;11.56;75.34;99228.19;5050830;28;20075;-80
2023/10/25 01:21:15;;;;;;;8.23;2.85;;;11.20;99.90;;;11.58;75.21;99228.75;5063111;28;20083;-80
2023/10/25 01:23:43;;;;;;;7.50;2.70;;;11.20;99.90;;;11.56;75.20;99228.19;5063075;28;20048;-81
2023/10/25 01:26:11;;;;;;;9.90;2.83;;;11.10;99.90;;;11.53;74.31;99223.34;5064016;28;20092;-81
2023/10/25 01:28:38;;;;;;;9.77;2.75;;;11.10;99.90;;;11.51;75.03;99220.09;5054972;28;20045;-80
2023/10/25 01:31:06;;;;;;;8.82;3.20;;;11.10;99.90;;;11.52;75.23;99221.75;5042861;28;20052;-80
2023/10/25 01:33:34;;;;;;;7.20;2.97;;;11.10;99.90;;;11.50;75.17;99210.47;5044010;28;20053;-80
2023/10/25 01:36:01;;;;;;;8.65;3.38;;;11.10;99.90;;;11.46;75.33;99215.50;5056497;28;20042;-80
2023/10/25 01:38:29;;;;;;;7.85;2.90;;;11.10;99.90;;;11.48;75.42;99209.94;5061977;28;20079;-80
2023/10/25 01:40:58;;;;;;;7.45;3.17;;;11.00;99.90;;;11.49;75.40;99211.53;5062880;28;20095;-80
2023/10/25 01:43:25;;;;;;;8.02;3.40;;;11.10;99.90;;;11.49;75.51;99209.69;5046247;28;20041;-80
2023/10/25 01:45:53;;;;;;;7.35;3.00;;;11.10;99.90;;;11.51;75.39;99210.22;5064049;28;20049;-80
2023/10/25 01:48:21;;;;;;;11.32;3.17;;;11.10;99.90;;;11.51;75.55;99212.09;5056680;28;20046;-80
2023/10/25 01:50:48;;;;;;;7.78;2.92;;;11.10;99.90;;;11.50;75.55;99205.16;5076481;28;20050;-80
2023/10/25 01:53:16;;;;;;;10.07;3.45;;;11.10;99.90;;;11.48;75.40;99197.38;5044591;28;20053;-80
2023/10/25 01:55:43;;;;;;;7.90;2.83;;;11.10;99.90;;;11.48;75.19;99193.91;5060257;28;20475;-80
2023/10/25 01:58:12;;;;;;;7.78;3.00;;;11.10;99.90;;;11.45;75.47;99189.06;5050189;28;20067;-80
2023/10/25 02:00:40;;;;;;;8.38;3.00;;;11.00;99.90;;;11.44;75.48;99187.47;5046982;28;20040;-82
2023/10/25 02:03:07;;;;;;;6.25;3.08;;;11.00;99.90;;;11.42;75.47;99182.38;5063857;28;20065;-81
2023/10/25 02:05:35;;;;;;;9.57;3.45;;;11.00;99.90;;;11.42;75.18;99184.22;5064807;28;20048;-81
2023/10/25 02:08:03;;;;;;;6.22;2.85;;;11.00;99.90;;;11.42;75.30;99186.88;5058227;28;20049;-81
2023/10/25 02:10:30;;;;;;;9.68;2.80;;;11.00;99.90;;;11.43;75.16;99172.50;5077757;28;20071;-80
2023/10/25 02:12:57;;;;;;;11.15;3.30;;;11.00;99.90;;;11.40;75.20;99179.13;5049895;28;20033;-80
2023/10/25 02:15:26;;;;;;;7.57;3.30;;;11.00;99.90;;;11.42;75.25;99170.84;5060788;28;20041;-80
2023/10/25 02:17:54;;;;;;;9.45;2.92;;;11.00;99.90;;;11.42;75.47;99163.69;5043064;28;20099;-80
2023/10/25 02:20:23;;;;;;;8.55;3.33;;;11.00;99.90;;;11.42;75.49;99157.50;5060062;28;20041;-80
2023/10/25 02:22:50;;;;;;;8.10;2.92;;;11.00;99.90;;;11.41;75.24;99158.56;5060002;28;20047;-80
2023/10/25 02:25:18;;;;;;;10.77;2.70;;;11.00;99.90;;;11.38;75.32;99149.22;5059794;28;20041;-80
2023/10/25 02:27:45;;;;;;;7.18;2.92;;;11.00;99.90;;;11.39;75.28;99152.69;5059137;28;20507;-80
2023/10/25 02:30:13;;;;;;;6.80;2.60;;;11.00;99.90;;;11.38;75.13;99153.75;5060835;28;20055;-80
2023/10/25 02:32:42;;;;;;;8.23;3.25;;;11.00;99.90;;;11.37;75.10;99157.44;5036484;28;20064;-80
2023/10/25 02:35:10;;;;;;;8.18;3.03;;;11.00;99.90;;;11.38;75.16;99154.56;5001647;28;20084;-80
2023/10/25 02:37:37;;;;;;;8.07;3.10;;;11.00;99.90;;;11.31;74.91;99154.72;5039452;28;20041;-80
2023/10/25 02:40:08;;;;;;;8.77;2.88;;;10.90;99.90;;;11.32;75.17;99152.84;5039181;28;20045;-80
2023/10/25 02:42:35;;;;;;;5.72;2.35;;;10.90;99.90;;;11.31;75.27;99148.59;5045097;28;20523;-80
2023/10/25 02:45:03;;;;;;;6.85;2.78;;;10.90;99.90;;;11.31;75.49;99148.59;5039326;28;20062;-80
2023/10/25 02:47:31;;;;;;;6.50;2.47;;;10.90;99.90;;;11.31;75.65;99144.03;5045989;28;20049;-80
2023/10/25 02:50:00;;;;;;;8.00;2.50;;;10.90;99.90;;;11.34;75.72;99132.88;5046630;28;20107;-80
2023/10/25 02:52:29;;;;;;;11.25;2.75;;;10.90;99.90;;;11.36;75.63;99143.31;5038672;28;20124;-80
2023/10/25 02:54:57;;;;;;;7.20;2.33;;;11.00;99.90;;;11.36;75.60;99135.28;5040704;28;20050;-80
2023/10/25 02:57:24;;;;;;;14.23;2.50;;;11.00;99.90;;;11.38;75.58;99135.06;5040970;28;20412;-80
2023/10/25 02:59:52;;;;;;;8.63;2.47;;;11.00;99.90;;;11.39;75.57;99128.66;5072484;28;20080;-80
2023/10/25 03:02:20;;;;;;;6.90;2.17;;;11.00;99.90;;;11.40;75.21;99119.59;5039993;28;20080;-80
2023/10/25 03:04:49;;;;;;;7.90;2.40;;;11.00;99.90;;;11.40;75.22;99125.75;5039534;28;20490;-80
2023/10/25 03:07:18;;;;;;;6.82;2.10;;;11.00;99.90;;;11.43;75.28;99127.91;5041669;28;20029;-80
2023/10/25 03:09:45;;;;;;;5.80;2.17;;;11.00;99.90;;;11.41;74.81;99126.53;5060681;28;20063;-80
2023/10/25 03:12:13;;;;;;;8.77;2.58;;;11.00;99.90;;;11.41;74.80;99121.19;5049708;28;20065;-80
2023/10/25 03:14:40;;;;;;;6.32;2.40;;;11.00;99.90;;;11.37;74.62;99114.75;5043762;28;20049;-80
2023/10/25 03:17:08;;;;;;;10.60;2.67;;;10.90;99.90;;;11.32;74.58;99119.00;5045429;28;20558;-80
2023/10/25 03:19:35;;;;;;;8.98;2.42;;;10.90;99.90;;;11.32;74.35;99118.16;5062839;28;20520;-80
2023/10/25 03:22:03;;;;;;;4.85;2.20;;;10.90;99.90;;;11.31;74.34;99121.88;5057603;28;20072;-80
2023/10/25 03:24:32;;;;;;;6.63;2.05;;;10.90;99.90;;;11.28;74.28;99117.88;5059980;28;20113;-80
2023/10/25 03:27:00;;;;;;;8.30;2.05;;;10.80;99.90;;;11.25;74.05;99107.69;5052746;28;20099;-80
2023/10/25 03:29:27;;;;;;;10.55;2.33;;;10.80;99.90;;;11.25;74.17;99097.00;5075297;28;20041;-81
2023/10/25 03:31:58;;;;;;;5.65;2.53;;;10.80;99.90;;;11.23;74.39;99099.13;5042539;28;20136;-80
2023/10/25 03:34:26;;;;;;;6.53;2.35;;;10.80;99.90;;;11.22;74.68;99092.16;5051768;28;20049;-81
2023/10/25 03:36:53;;;;;;;7.82;2.17;;;10.80;99.90;;;11.22;75.00;99089.50;5045555;28;20053;-81
2023/10/25 03:39:21;;;;;;;6.65;2.15;;;10.80;99.90;;;11.25;74.92;99088.19;5075999;28;20131;-81
2023/10/25 03:41:50;;;;;;;5.60;2.28;;;10.80;99.90;;;11.25;74.60;99075.66;5039667;28;20080;-82
2023/10/25 03:44:18;;;;;;;10.02;2.38;;;10.80;99.90;;;11.22;74.77;99076.16;5025744;28;20117;-83
2023/10/25 03:46:47;;;;;;;11.70;2.20;;;10.80;99.90;;;11.21;74.68;99079.88;5009588;28;20148;-81
2023/10/25 03:49:14;;;;;;;13.30;2.30;;;10.80;99.90;;;11.21;74.74;99089.75;5027786;28;20041;-82
2023/10/25 03:51:42;;;;;;;7.43;2.28;;;10.80;99.90;;;11.22;74.87;99086.03;5039168;28;20061;-82
2023/10/25 03:54:09;;;;;;;5.72;2.35;;;10.80;99.90;;;11.21;74.76;99087.06;5044725;28;20048;-83
2023/10/25 03:56:36;;;;;;;6.53;2.17;;;10.80;99.90;;;11.21;75.12;99079.88;5062246;28;20064;-82
2023/10/25 03:59:06;;;;;;;4.35;2.05;;;10.80;99.90;;;11.22;75.01;99084.16;5062051;28;20102;-82
2023/10/25 04:01:33;;;;;;;4.50;1.70;;;10.80;99.90;;;11.19;74.87;99076.66;5059413;28;20047;-82
2023/10/25 04:04:01;;;;;;;5.05;1.92;;;10.80;99.90;;;11.15;74.59;99075.53;5043331;28;20389;-82
2023/10/25 04:06:29;;;;;;;5.20;2.10;;;10.70;99.90;;;11.16;74.67;99076.34;5060285;28;20037;-83
2023/10/25 04:08:57;;;;;;;6.78;2.17;;;10.70;99.90;;;11.15;74.45;99070.22;5044237;28;20045;-83
2023/10/25 04:11:24;;;;;;;5.75;2.28;;;10.70;99.90;;;11.11;74.40;99063.75;5059086;28;20086;-82
2023/10/25 04:13:52;;;;;;;6.70;2.35;;;10.70;99.90;;;11.07;74.30;99057.28;5040409;28;20068;-82
2023/10/25 04:16:21;;;;;;;7.15;1.92;;;10.60;99.90;;;11.05;74.05;99064.75;5040643;28;20100;-82
2023/10/25 04:18:49;;;;;;;7.18;2.00;;;10.60;99.90;;;11.02;74.00;99065.25;5040815;28;20103;-82
2023/10/25 04:21:16;;;;;;;4.38;1.90;;;10.60;99.90;;;11.00;74.29;99072.69;5056556;28;20050;-83
2023/10/25 04:23:44;;;;;;;4.55;2.00;;;10.60;99.90;;;11.01;74.03;99064.44;5052931;28;20053;-82
2023/10/25 04:26:13;;;;;;;4.70;1.90;;;10.60;99.90;;;10.98;74.23;99064.13;5055155;28;20461;-82
2023/10/25 04:28:46;;;;;;;6.15;2.40;;;10.60;99.90;;;11.00;74.40;99062.81;5038739;28;20045;-83
2023/10/25 04:31:14;;;;;;;9.85;2.40;;;10.60;99.90;;;10.97;74.37;99051.84;5069848;28;20145;-83
2023/10/25 04:33:43;;;;;;;5.63;2.08;;;10.60;99.90;;;10.98;74.89;99048.13;5037373;28;20449;-81
2023/10/25 04:36:10;;;;;;;6.55;2.17;;;10.60;99.90;;;10.99;74.89;99050.56;5057607;28;20045;-81
2023/10/25 04:38:38;;;;;;;5.65;2.20;;;10.60;99.90;;;11.00;75.36;99056.69;5041730;28;20148;-80
2023/10/25 04:41:06;;;;;;;8.15;2.30;;;10.60;99.90;;;11.04;75.37;99057.81;5025954;28;20445;-80
2023/10/25 04:43:34;;;;;;;6.28;1.90;;;10.70;99.90;;;11.06;75.61;99053.03;5021979;28;20120;-81
2023/10/25 04:46:03;;;;;;;8.80;1.92;;;10.70;99.90;;;11.04;75.69;99047.94;5053248;28;20049;-84
2023/10/25 04:48:30;;;;;;;8.57;2.00;;;10.70;99.90;;;11.09;75.69;99044.53;5039456;28;20049;-82
2023/10/25 04:50:59;;;;;;;7.63;1.90;;;10.70;99.90;;;11.08;76.09;99048.25;5055880;28;20045;-83
2023/10/25 04:53:26;;;;;;;5.82;1.77;;;10.70;99.90;;;11.09;76.44;99048.00;5039035;28;20065;-83
2023/10/25 04:55:54;;;;;;;6.13;2.05;;;10.80;99.90;;;11.12;76.25;99033.34;5039858;28;20092;-83
2023/10/25 04:58:23;;;;;;;7.80;2.20;;;10.80;99.90;;;11.14;76.45;99030.44;5039314;28;20050;-83
2023/10/25 05:00:52;;;;;;;9.45;2.40;;;10.80;99.90;;;11.12;76.50;99028.00;5039223;28;20112;-83
2023/10/25 05:03:19;;;;;;;10.23;2.17;;;10.80;99.90;;;11.12;76.62;99037.88;5036463;28;20072;-85
2023/10/25 05:05:49;;;;;;;7.65;2.42;;;10.80;99.90;;;11.12;76.99;99028.00;5067032;28;20050;-84
2023/10/25 05:08:19;;;;;;;7.45;2.10;;;10.80;99.90;;;11.15;76.96;99032.84;5037800;28;20152;-84
2023/10/25 05:10:54;;;;;;;9.98;2.20;;;10.80;99.90;;;11.17;77.02;99013.91;5054829;28;20045;-83
2023/10/25 05:13:23;;;;;;;5.05;1.95;;;10.80;99.90;;;11.20;77.06;99018.75;5070937;28;20046;-83
2023/10/25 05:15:51;;;;;;;9.07;2.00;;;10.90;99.90;;;11.21;76.96;99015.84;5039500;28;20041;-83
2023/10/25 05:18:19;;;;;;;5.85;2.10;;;10.90;99.90;;;11.24;76.82;99015.34;5039859;28;20049;-83
2023/10/25 05:20:49;;;;;;;6.78;2.17;;;10.90;99.90;;;11.24;76.91;99015.34;5050814;28;20045;-85
2023/10/25 05:23:18;;;;;;;7.50;2.30;;;10.90;99.90;;;11.26;76.87;99012.41;5043172;28;20107;-81
2023/10/25 05:25:47;;;;;;;5.90;2.10;;;10.90;99.90;;;11.23;77.12;99003.06;5046534;28;20501;-81
2023/10/25 05:28:15;;;;;;;6.82;2.20;;;10.90;99.90;;;11.25;77.32;99000.94;5046015;28;20045;-81
2023/10/25 05:30:43;;;;;;;3.85;2.13;;;10.90;99.90;;;11.28;77.19;99002.31;5044328;28;20053;-81
2023/10/25 05:33:12;;;;;;;7.07;2.30;;;11.00;99.90;;;11.29;77.17;99011.91;5046093;28;20049;-81
2023/10/25 05:35:53;;;;;;;10.80;2.20;;;10.90;99.90;;;11.30;77.14;99009.00;5061760;28;20476;-80
2023/10/25 05:38:23;;;;;;;7.95;2.03;;;11.00;99.90;;;11.32;77.21;99006.88;5045051;28;20072;-81
2023/10/25 05:40:54;;;;;;;8.80;2.53;;;11.00;99.90;;;11.28;76.89;99011.13;5028747;28;20053;-81
2023/10/25 05:43:28;;;;;;;6.05;2.58;;;10.90;99.90;;;11.27;77.29;99009.50;5046927;28;20061;-81
2023/10/25 05:45:56;;;;;;;6.57;2.25;;;10.90;99.90;;;11.26;77.73;99010.53;5046132;28;20045;-81
2023/10/25 05:48:25;;;;;;;7.57;2.50;;;10.90;99.90;;;11.29;77.53;99007.38;5043756;28;20076;-81
2023/10/25 05:50:53;;;;;;;6.55;2.25;;;11.00;99.90;;;11.30;77.81;99002.84;5044847;28;20493;-80
2023/10/25 05:53:23;;;;;;;15.73;2.53;;;11.00;99.90;;;11.33;77.73;98999.69;5044367;28;20117;-80
2023/10/25 05:55:51;;;;;;;6.25;2.55;;;11.00;99.90;;;11.35;77.61;99000.22;5045040;28;20046;-80
2023/10/25 05:58:19;;;;;;;9.15;2.50;;;11.00;99.90;;;11.37;77.75;98991.97;5044209;28;20050;-80
2023/10/25 06:00:52;;;;;;;8.35;2.30;;;11.00;99.90;;;11.37;77.74;98995.47;5028889;28;20409;-81
2023/10/25 06:03:22;;;;;;;6.05;2.40;;;11.10;99.90;;;11.34;77.68;98979.94;5045456;28;20091;-81
2023/10/25 06:05:52;;;;;;;8.77;2.95;;;11.00;99.90;;;11.35;77.42;98977.00;5045172;28;20081;-81
2023/10/25 06:08:22;;;;;;;6.30;2.75;;;11.00;99.90;;;11.37;77.35;98978.63;5028514;28;20049;-81
2023/10/25 06:10:51;;;;;;;7.63;2.60;;;11.00;99.90;;;11.37;77.48;98975.94;5045334;28;20101;-81
2023/10/25 06:13:19;;;;;;;11.57;3.13;;;11.00;99.90;;;11.37;77.39;98978.63;5028490;28;20065;-81
2023/10/25 06:15:46;;;;;;;7.07;2.10;;;11.00;99.90;;;11.38;77.44;98973.03;5046137;28;20072;-81
2023/10/25 06:18:14;;;;;;;8.15;2.55;;;11.00;99.90;;;11.37;77.44;98967.94;5045222;28;20049;-81
2023/10/25 06:20:42;;;;;;;5.80;2.30;;;11.00;99.90;;;11.34;77.40;98955.91;5027551;28;20124;-80
2023/10/25 06:23:09;;;;;;;9.88;2.55;;;11.00;99.90;;;11.33;77.51;98955.13;5045017;28;20053;-81
2023/10/25 06:25:39;;;;;;;8.30;2.80;;;11.00;99.90;;;11.33;77.49;98955.13;5027823;28;20445;-81
2023/10/25 06:28:09;;;;;;;13.10;2.35;;;11.00;99.90;;;11.34;77.61;98953.25;5044042;28;20075;-81
2023/10/25 06:30:37;;;;;;;8.63;2.13;;;11.00;99.90;;;11.33;77.70;98955.13;5043297;28;20045;-81
2023/10/25 06:33:04;;;;;;;8.60;2.72;;;11.00;99.90;;;11.35;77.41;98946.84;5043632;28;20041;-81
2023/10/25 06:35:32;;;;;;;8.00;2.15;;;11.00;99.90;;;11.37;77.62;98941.25;5042169;28;20053;-81
2023/10/25 06:38:00;;;;;;;7.65;2.25;;;11.00;99.90;;;11.39;77.47;98944.47;5026838;28;20052;-81
2023/10/25 06:40:28;;;;;;;7.93;2.67;;;11.10;99.90;;;11.41;77.65;98934.34;5043232;28;20435;-81
2023/10/25 06:42:58;;;;;;;5.50;2.30;;;11.10;99.90;;;11.42;77.73;98934.09;5027961;28;20045;-81
2023/10/25 06:45:27;;;;;;;6.53;2.20;;;11.10;99.90;;;11.40;77.60;98928.19;5027535;28;20137;-81
2023/10/25 06:47:56;;;;;;;7.35;2.50;;;11.10;99.90;;;11.39;77.66;98928.47;5047485;28;20041;-81
2023/10/25 06:50:26;;;;;;;6.93;2.47;;;11.00;99.90;;;11.40;77.59;98911.38;5048478;28;20077;-81
2023/10/25 06:52:54;;;;;;;6.10;2.60;;;11.10;99.90;;;11.42;77.75;98914.59;5048728;28;20523;-80
2023/10/25 06:55:23;;;;;;;6.82;2.80;;;11.10;99.90;;;11.44;78.02;98915.97;5048539;28;20097;-80
2023/10/25 06:57:51;;;;;;;6.47;2.30;;;11.10;99.90;;;11.48;77.87;98906.38;5047981;28;20520;-80
2023/10/25 07:00:23;;;;;;;6.22;2.45;;;11.20;99.90;;;11.50;77.95;98900.78;5047593;28;20045;-80
2023/10/25 07:02:52;;;;;;;;;;;11.20;99.90;;;11.51;77.93;98905.84;5047647;28;20111;-80
2023/10/25 07:05:23;;;;;;;7.07;2.63;;;11.20;99.90;;;11.53;77.81;98894.94;5048330;28;19945;-80
2023/10/25 07:07:53;;;;;;;5.93;2.38;;;11.20;99.90;;;11.54;77.94;98896.53;5049274;28;20041;-80
2023/10/25 07:10:22;;;;;;;9.15;3.00;;;11.20;99.90;;;11.54;77.86;98896.53;5048541;28;20052;-80
2023/10/25 07:12:50;;;;;;;8.13;2.38;;;11.20;99.90;;;11.55;77.94;98890.94;5049471;28;20053;-80
2023/10/25 07:15:20;;;;;;;10.45;2.30;;;11.30;99.90;;;11.57;78.22;98882.69;5048647;28;20493;-80
2023/10/25 07:17:49;;;;;;;8.07;2.90;;;11.30;99.90;;;11.59;78.25;98881.38;5048638;28;20042;-80
2023/10/25 07:20:20;;;;;;;7.55;2.50;;;11.30;99.90;;;11.62;77.99;98882.72;5048511;28;20044;-80
2023/10/25 07:22:47;;;;;;;6.10;2.28;;;11.40;99.90;;;11.63;77.90;98868.31;5048829;28;20045;-80
2023/10/25 07:25:14;;;;;;;9.23;2.60;;;11.40;99.90;;;11.65;78.19;98863.50;5048806;28;20049;-80
2023/10/25 07:27:42;;;;;;;7.57;2.10;;;11.40;99.90;;;11.63;78.42;98862.16;5030962;28;20046;-80
2023/10/25 07:30:10;;;;;;;6.65;2.10;;;11.40;99.90;;;11.65;78.95;98857.38;5046928;28;20049;-80
2023/10/25 07:32:40;;;;;;;6.60;2.10;;;11.40;99.90;;;11.64;77.90;98848.56;5047490;28;20072;-80
2023/10/25 07:35:08;;;;;;;12.98;2.20;;;11.40;99.90;;;11.65;78.33;98855.50;5030250;28;20050;-80
2023/10/25 07:37:35;;;;;;;7.18;2.00;;;11.40;99.90;;;11.67;78.07;98853.38;5046912;28;20092;-80
2023/10/25 07:40:05;;;;;;;7.05;1.90;;;11.50;99.90;;;11.71;78.42;98848.31;5048526;28;20045;-80
2023/10/25 07:42:32;;;;;;;9.30;2.13;;;11.50;99.90;;;11.73;78.15;98844.34;5029761;28;20072;-80
2023/10/25 07:45:00;;;;;;;8.63;2.50;;;11.50;99.90;;;11.74;78.63;98834.44;5047688;28;20509;-80
2023/10/25 07:47:27;;;;;;;4.68;1.92;;;11.50;99.90;;;11.75;78.80;98828.03;5048825;28;20048;-80
2023/10/25 07:49:56;;;;;;;8.30;1.88;;;11.50;99.90;;;11.72;78.18;98831.25;5047231;28;20073;-80
2023/10/25 07:52:25;;;;;;;7.65;1.80;;;11.50;99.90;;;11.74;78.53;98818.44;5048933;28;20037;-80
2023/10/25 07:54:52;;;;;;;7.93;2.35;;;11.50;99.90;;;11.76;78.77;98825.13;5048610;28;20049;-80
2023/10/25 07:57:20;;;;;;;9.85;2.70;;;11.50;99.90;;;11.77;78.56;98810.72;5048073;28;20049;-80
2023/10/25 07:59:48;;;;;;;8.25;2.45;;;11.60;99.90;;;11.77;78.81;98809.91;5047598;28;20052;-80
2023/10/25 08:02:16;;;;;;;10.43;2.15;;;11.60;99.90;;;11.74;78.48;98803.19;5048751;28;20068;-80
2023/10/25 08:04:43;;;;;;;5.13;1.77;;;11.50;99.90;;;11.75;78.51;98804.00;5047266;28;20101;-80
2023/10/25 08:07:12;;;;;;;7.00;2.05;;;11.50;99.90;;;11.77;78.82;98799.22;5048276;28;20477;-80
2023/10/25 08:09:42;;;;;;;9.48;1.98;;;11.50;99.90;;;11.77;79.11;98792.00;5047010;28;20049;-80
2023/10/25 08:12:10;;;;;;;4.82;1.70;;;11.50;99.90;;;11.76;78.55;98793.09;5014424;28;20077;-80
2023/10/25 08:14:37;;;;;;;5.55;1.80;;;11.50;99.90;;;11.77;78.59;98792.00;5046015;28;20042;-80
2023/10/25 08:17:05;;;;;;;6.80;2.10;;;11.60;99.90;;;11.79;78.72;98794.41;5029815;28;20049;-80
2023/10/25 08:19:33;;;;;;;6.38;1.80;;;11.60;99.90;;;11.77;78.58;98789.34;5046833;28;20060;-80
2023/10/25 08:22:01;;;;;;;6.97;1.73;;;11.50;99.90;;;11.79;78.94;98792.53;5045400;28;20042;-80
2023/10/25 08:24:30;;;;;;;5.22;1.80;;;11.60;99.90;;;11.78;78.75;98796.28;5045707;28;20109;-81
2023/10/25 08:26:59;;;;;;;5.68;1.92;;;11.60;99.90;;;11.78;78.79;98793.63;5048279;28;20076;-80
2023/10/25 08:29:26;;;;;;;8.98;1.73;;;11.60;99.90;;;11.76;78.60;98786.91;5047213;28;20072;-80
2023/10/25 08:31:54;;;;;;;6.55;1.92;;;11.50;99.90;;;11.79;79.18;98789.88;5047055;28;20045;-80
2023/10/25 08:34:21;;;;;;;8.95;2.10;;;11.60;99.90;;;11.79;78.41;98791.75;5046275;28;20413;-80
2023/10/25 08:36:49;;;;;;;7.22;2.20;;;11.60;99.90;;;11.82;78.74;98786.72;5045722;28;20037;-80
2023/10/25 08:39:21;;;;;;;6.75;2.08;;;11.60;99.90;;;11.85;78.37;98790.72;5048000;28;20069;-80
2023/10/25 08:41:52;;;;;;;11.10;2.53;;;11.70;99.90;;;11.85;78.05;98788.84;5045452;28;20068;-80
2023/10/25 08:44:20;;;;;;;6.07;1.65;;;11.70;99.90;;;11.86;78.33;98784.34;5046997;28;20138;-80
2023/10/25 08:46:51;;;;;;;6.28;1.90;;;11.70;99.90;;;11.89;78.77;98780.34;5046354;28;20068;-80
2023/10/25 08:49:19;;;;;;;6.28;1.63;;;11.70;99.90;;;11.89;78.83;98774.97;5047628;28;20042;-80
2023/10/25 08:51:49;;;;;;;7.30;1.88;;;11.80;99.90;;;11.91;78.50;98772.84;5045170;28;20075;-80
2023/10/25 08:54:20;;;;;;;5.70;1.50;;;11.80;99.90;;;11.93;78.79;98773.41;5046040;28;20045;-80
2023/10/25 08:56:53;;;;;;;6.03;1.70;;;11.80;99.90;;;11.92;78.58;98763.78;5046998;28;20049;-80
2023/10/25 08:59:20;;;;;;;5.72;1.73;;;11.80;99.90;;;11.91;78.82;98759.50;5046294;28;20107;-80
2023/10/25 09:01:49;;;;;;;5.70;1.50;;;11.80;99.90;;;11.90;78.28;98748.00;5045831;28;20109;-80
2023/10/25 09:04:16;;;;;;;4.18;1.50;;;11.80;99.90;;;11.92;78.09;98747.75;5043844;28;20060;-80
2023/10/25 09:06:45;;;;;;;8.90;1.70;;;11.80;99.90;;;11.96;78.18;98740.84;5045004;28;20052;-80
2023/10/25 09:09:12;;;;;;;5.30;1.60;;;11.90;99.90;;;11.97;78.63;98739.75;5044536;28;20045;-80
2023/10/25 09:11:43;;;;;;;5.05;1.63;;;11.90;99.90;;;11.99;78.83;98742.97;5044524;28;20045;-80
2023/10/25 09:14:13;;;;;;;8.00;1.70;;;11.90;99.90;;;12.00;78.28;98741.88;5046635;28;20074;-80
2023/10/25 09:16:42;;;;;;;4.53;1.40;;;11.90;99.90;;;12.01;77.94;98748.88;5046479;28;20034;-82
2023/10/25 09:19:10;;;;;;;8.55;1.48;;;11.90;99.90;;;11.98;77.38;98736.00;5046915;28;20038;-81
2023/10/25 09:21:39;;;;;;;5.43;1.60;;;11.90;99.90;;;12.01;77.94;98730.97;5047599;28;20064;-81
2023/10/25 09:24:09;;;;;;;11.45;1.85;;;11.90;99.90;;;12.03;78.10;98725.34;5045577;28;20053;-81
2023/10/25 09:26:39;;;;;;;7.78;1.50;;;11.90;99.90;;;12.04;77.92;98718.94;5046763;28;20046;-81
2023/10/25 09:29:09;;;;;;;5.03;1.45;;;11.90;99.90;;;12.05;78.29;98720.53;5042573;28;20042;-81
2023/10/25 09:31:39;;;;;;;8.82;1.65;;;11.90;99.90;;;12.06;78.49;98714.94;5025462;28;20523;-81
2023/10/25 09:34:09;;;;;;;7.47;1.70;;;11.90;99.90;;;12.09;78.89;98713.59;5044074;28;20045;-80
2023/10/25 09:36:37;;;;;;;7.28;1.52;;;12.00;99.90;;;12.08;77.64;98699.44;5045810;28;20116;-81
2023/10/25 09:39:05;;;;;;;7.28;1.65;;;12.00;99.90;;;12.07;77.45;98703.19;5047217;28;20120;-80
2023/10/25 09:41:39;;;;;;;9.75;1.52;;;12.00;99.90;;;12.08;77.61;98695.97;5043818;28;20049;-81
2023/10/25 09:44:18;;;;;;;5.35;1.48;;;12.00;99.90;;;12.06;78.01;98695.44;5045641;28;20080;-81
2023/10/25 09:46:49;;;;;;;6.40;1.50;;;12.00;99.90;;;12.05;77.49;98678.59;5045201;28;20049;-80
2023/10/25 09:49:18;;;;;;;6.70;1.50;;;12.00;99.90;;;12.10;77.75;98673.25;5045638;28;20069;-80
2023/10/25 09:52:05;;;;;;;5.68;1.50;;;12.00;99.90;;;12.10;77.06;98659.91;5045289;28;20294;-81
2023/10/25 09:54:34;;;;;;;7.00;1.63;;;12.00;99.90;;;12.08;78.24;98654.00;5010891;28;20108;-81
2023/10/25 09:57:04;;;;;;;7.97;1.45;;;12.00;99.90;;;12.10;78.41;98654.56;5044225;28;20100;-81
2023/10/25 09:59:33;;;;;;;3.63;1.58;;;12.00;99.90;;;12.09;77.69;98655.59;5042846;28;20053;-81
2023/10/25 10:02:06;;;;;;;5.65;1.63;;;12.00;99.90;;;12.10;78.10;98651.06;5060573;28;20111;-80
2023/10/25 10:04:45;;;;;;;3.97;1.60;;;12.00;99.90;;;12.10;77.86;98657.22;5042262;28;20528;-81
2023/10/25 10:07:30;;;;;;;4.15;1.40;;;12.00;99.90;;;12.11;77.89;98658.03;5027039;28;20049;-80
2023/10/25 10:10:09;;;;;;;5.50;1.60;;;12.00;99.90;;;12.11;77.49;98648.16;5045737;28;20045;-80
2023/10/25 10:12:38;;;;;;;9.95;1.83;;;12.00;99.90;;;12.13;78.22;98639.84;5045475;28;20099;-80
2023/10/25 10:15:07;;;;;;;7.80;1.90;;;12.00;99.90;;;12.15;78.84;98636.91;5043499;28;20061;-80
2023/10/25 10:17:43;;;;;;;6.05;1.70;;;12.00;99.90;;;12.16;78.77;98630.50;5043303;28;20103;-80
2023/10/25 10:20:25;;;;;;;8.75;1.70;;;12.00;99.90;;;12.14;78.29;98620.06;5044203;28;20067;-80
2023/10/25 10:23:06;;;;;;;8.52;2.13;;;12.00;99.90;;;12.15;78.26;98612.84;5045101;28;20052;-80
2023/10/25 10:25:46;;;;;;;5.32;1.65;;;12.00;99.90;;;12.14;78.18;98598.69;5044927;28;20045;-80